createdAt,value
2022-11-29T00:00:52.497Z,44.17
2022-11-29T00:03:19.346Z,43.15
2022-11-29T00:05:46.051Z,42.10
2022-11-29T00:08:13.679Z,41.35
2022-11-29T00:10:40.432Z,41.42
2022-11-29T00:13:07.071Z,39.63
2022-11-29T00:15:38.148Z,39.63
2022-11-29T00:18:05.663Z,34.63
2022-11-29T00:20:33.457Z,40.45
2022-11-29T00:23:00.386Z,36.53
2022-11-29T00:25:27.814Z,31.38
2022-11-29T00:27:54.407Z,33.15
2022-11-29T00:30:21.139Z,42.13
2022-11-29T00:32:47.841Z,33.05
2022-11-29T00:35:14.611Z,37.47
2022-11-29T00:37:41.329Z,41.75
2022-11-29T00:40:08.630Z,35.60
2022-11-29T00:42:35.243Z,31.23
2022-11-29T00:45:01.886Z,40.03
2022-11-29T00:47:29.474Z,35.33
2022-11-29T00:49:56.075Z,34.88
2022-11-29T00:52:22.764Z,40.05
2022-11-29T00:54:49.338Z,43.03
2022-11-29T00:57:15.958Z,38.20
2022-11-29T00:59:42.576Z,36.58
2022-11-29T01:02:09.271Z,34.03
2022-11-29T01:04:35.900Z,34.95
2022-11-29T01:07:02.662Z,41.42
2022-11-29T01:09:29.301Z,37.67
2022-11-29T01:11:55.874Z,32.22
2022-11-29T01:14:22.801Z,31.17
2022-11-29T01:16:49.465Z,26.83
2022-11-29T01:19:16.250Z,29.10
2022-11-29T01:21:42.883Z,32.50
2022-11-29T01:24:09.548Z,39.85
2022-11-29T01:26:36.183Z,37.83
2022-11-29T01:29:02.795Z,40.45
2022-11-29T01:31:32.309Z,45.95
2022-11-29T01:34:01.084Z,48.97
2022-11-29T01:36:28.602Z,49.30
2022-11-29T01:38:55.665Z,40.38
2022-11-29T01:41:28.317Z,44.47
2022-11-29T01:44:00.096Z,38.55
2022-11-29T01:46:32.396Z,36.05
2022-11-29T01:49:08.879Z,44.95
2022-11-29T01:51:40.118Z,35.40
2022-11-29T01:54:08.609Z,34.20
2022-11-29T01:56:36.038Z,27.58
2022-11-29T01:59:06.658Z,32.42
2022-11-29T02:01:34.747Z,31.40
2022-11-29T02:04:04.784Z,25.63
2022-11-29T02:06:31.539Z,32.50
2022-11-29T02:08:58.290Z,27.75
2022-11-29T02:11:31.130Z,37.17
2022-11-29T02:14:22.589Z,35.17
2022-11-29T02:17:01.893Z,26.55
2022-11-29T02:19:42.301Z,27.80
2022-11-29T02:22:28.287Z,23.23
2022-11-29T02:25:18.249Z,26.75
2022-11-29T02:28:04.302Z,27.70
2022-11-29T02:30:46.308Z,26.58
2022-11-29T02:33:44.139Z,23.30
2022-11-29T02:36:23.515Z,23.02
2022-11-29T02:39:22.482Z,23.70
2022-11-29T02:42:24.467Z,23.23
2022-11-29T02:45:22.001Z,21.23
2022-11-29T02:48:07.402Z,18.75
2022-11-29T02:50:57.196Z,23.33
2022-11-29T02:53:50.234Z,26.23
2022-11-29T02:56:32.011Z,21.77
2022-11-29T02:59:23.380Z,21.75
2022-11-29T03:01:56.020Z,21.05
2022-11-29T03:04:43.201Z,14.95
2022-11-29T03:07:23.873Z,26.85
2022-11-29T03:10:08.566Z,16.20
2022-11-29T03:12:45.940Z,18.08
2022-11-29T03:16:00.093Z,16.92
2022-11-29T03:18:57.230Z,17.00
2022-11-29T03:21:37.194Z,16.58
2022-11-29T03:24:15.883Z,14.73
2022-11-29T03:26:49.415Z,11.10
2022-11-29T03:29:27.192Z,12.48
2022-11-29T03:32:03.524Z,14.23
2022-11-29T03:34:57.451Z,12.25
2022-11-29T03:37:51.750Z,9.57
2022-11-29T03:40:22.552Z,13.05
2022-11-29T03:43:02.181Z,12.40
2022-11-29T03:46:03.234Z,11.55
2022-11-29T03:48:56.154Z,18.23
2022-11-29T03:51:49.253Z,10.23
2022-11-29T03:54:22.380Z,9.00
2022-11-29T03:56:49.631Z,16.00
2022-11-29T03:59:44.218Z,12.48
2022-11-29T04:02:38.624Z,14.00
2022-11-29T04:05:14.108Z,14.10
2022-11-29T04:07:55.935Z,16.27
2022-11-29T04:10:59.254Z,19.38
2022-11-29T04:14:07.446Z,21.98
2022-11-29T04:16:51.931Z,19.20
2022-11-29T04:19:30.487Z,16.13
2022-11-29T04:22:44.547Z,11.20
2022-11-29T04:25:13.722Z,12.90
2022-11-29T04:27:41.600Z,19.05
2022-11-29T04:30:11.102Z,12.73
2022-11-29T04:32:55.952Z,10.52
2022-11-29T04:35:28.499Z,12.10
2022-11-29T04:38:09.563Z,17.70
2022-11-29T04:41:14.106Z,18.90
2022-11-29T04:44:05.503Z,17.23
2022-11-29T04:46:39.991Z,20.63
2022-11-29T04:49:24.889Z,12.57
2022-11-29T04:52:12.637Z,14.02
2022-11-29T04:55:04.597Z,20.65
2022-11-29T04:57:55.738Z,8.10
2022-11-29T05:00:24.858Z,11.98
2022-11-29T05:02:58.868Z,7.50
2022-11-29T05:05:44.221Z,18.67
2022-11-29T05:08:25.987Z,10.07
2022-11-29T05:11:04.707Z,15.25
2022-11-29T05:14:01.922Z,11.50
2022-11-29T05:16:45.763Z,16.63
2022-11-29T05:19:26.062Z,13.20
2022-11-29T05:22:23.014Z,10.80
2022-11-29T05:25:08.130Z,7.88
2022-11-29T05:27:40.936Z,10.27
2022-11-29T05:30:13.467Z,11.85
2022-11-29T05:32:53.830Z,18.60
2022-11-29T05:35:44.737Z,12.63
2022-11-29T05:38:34.364Z,11.73
2022-11-29T05:41:03.958Z,9.82
2022-11-29T05:44:11.406Z,12.82
2022-11-29T05:47:03.978Z,8.32
2022-11-29T05:49:51.782Z,10.07
2022-11-29T05:52:53.134Z,10.60
2022-11-29T05:55:48.307Z,13.30
2022-11-29T05:58:39.814Z,10.40
2022-11-29T06:01:23.574Z,7.70
2022-11-29T06:03:59.963Z,7.57
2022-11-29T06:06:30.710Z,12.95
2022-11-29T06:09:07.646Z,8.85
2022-11-29T06:11:44.386Z,4.85
2022-11-29T06:14:44.792Z,14.75
2022-11-29T06:17:39.682Z,9.05
2022-11-29T06:20:40.266Z,7.15
2022-11-29T06:23:25.410Z,9.38
2022-11-29T06:26:07.417Z,11.57
2022-11-29T06:29:01.864Z,7.28
2022-11-29T06:31:44.587Z,9.93
2022-11-29T06:34:36.527Z,12.70
2022-11-29T06:37:23.902Z,12.82
2022-11-29T06:39:50.710Z,10.23
2022-11-29T06:42:17.513Z,9.93
2022-11-29T06:44:44.572Z,11.00
2022-11-29T06:47:27.299Z,8.63
2022-11-29T06:53:05.470Z,6.82
2022-11-29T06:55:49.375Z,7.30
2022-11-29T06:58:40.412Z,9.70
2022-11-29T07:01:33.606Z,11.95
2022-11-29T07:04:30.943Z,7.40
2022-11-29T07:06:57.968Z,14.65
2022-11-29T07:09:30.564Z,7.25
2022-11-29T07:11:57.643Z,6.95
2022-11-29T07:14:24.794Z,14.73
2022-11-29T07:17:12.860Z,7.70
2022-11-29T07:19:54.456Z,6.47
2022-11-29T07:22:59.068Z,9.02
2022-11-29T07:25:51.206Z,11.73
2022-11-29T07:28:46.611Z,10.50
2022-11-29T07:31:16.487Z,10.60
2022-11-29T07:34:25.238Z,8.52
2022-11-29T07:37:10.821Z,9.93
2022-11-29T07:39:54.187Z,7.05
2022-11-29T07:42:23.409Z,18.08
2022-11-29T07:44:52.750Z,7.10
2022-11-29T07:47:19.442Z,11.15
2022-11-29T07:49:46.010Z,12.02
2022-11-29T07:52:15.742Z,6.07
2022-11-29T07:54:42.701Z,5.88
2022-11-29T07:57:09.410Z,4.72
2022-11-29T07:59:36.070Z,11.63
2022-11-29T08:02:06.511Z,10.60
2022-11-29T08:04:47.293Z,5.75
2022-11-29T08:07:14.652Z,6.72
2022-11-29T08:09:41.312Z,5.53
2022-11-29T08:12:08.005Z,7.93
2022-11-29T08:14:34.610Z,8.13
2022-11-29T08:17:01.200Z,14.30
2022-11-29T08:19:27.911Z,11.13
2022-11-29T08:21:54.591Z,8.50
2022-11-29T08:24:21.562Z,10.75
2022-11-29T08:26:48.440Z,8.35
2022-11-29T08:29:15.418Z,7.55
2022-11-29T08:31:42.097Z,9.85
2022-11-29T08:34:10.634Z,7.80
2022-11-29T08:36:37.395Z,5.85
2022-11-29T08:39:09.315Z,14.52
2022-11-29T08:44:04.961Z,9.98
2022-11-29T08:46:49.991Z,13.93
2022-11-29T08:49:16.608Z,20.35
2022-11-29T08:51:43.264Z,14.30
2022-11-29T08:54:10.541Z,19.45
2022-11-29T08:59:24.318Z,22.25
2022-11-29T09:01:51.262Z,107.72
2022-11-29T09:04:17.995Z,144.63
2022-11-29T09:06:44.880Z,43.40
2022-11-29T09:09:11.547Z,14.57
2022-11-29T09:11:38.233Z,14.10
2022-11-29T09:14:07.701Z,8.10
2022-11-29T09:16:36.821Z,9.82
2022-11-29T09:19:05.371Z,8.70
2022-11-29T09:21:34.419Z,6.22
2022-11-29T09:24:02.944Z,10.23
2022-11-29T09:26:32.258Z,10.70
2022-11-29T09:29:01.394Z,8.82
2022-11-29T09:31:29.954Z,12.57
2022-11-29T09:33:57.325Z,9.73
2022-11-29T09:36:28.424Z,14.90
2022-11-29T09:39:00.793Z,5.97
2022-11-29T09:41:49.364Z,10.07
2022-11-29T09:44:41.280Z,7.68
2022-11-29T09:47:28.147Z,10.15
2022-11-29T09:50:16.627Z,9.43
2022-11-29T09:52:57.303Z,13.88
2022-11-29T09:55:30.035Z,6.90
2022-11-29T09:57:59.554Z,8.27
2022-11-29T10:00:28.863Z,12.45
2022-11-29T10:03:01.489Z,12.23
2022-11-29T10:05:32.626Z,11.32
2022-11-29T10:08:07.118Z,14.15
2022-11-29T10:10:41.635Z,10.55
2022-11-29T10:13:23.883Z,16.33
2022-11-29T10:15:54.587Z,13.95
2022-11-29T10:18:23.919Z,13.07
2022-11-29T10:20:52.690Z,11.98
2022-11-29T10:23:47.104Z,13.35
2022-11-29T10:26:14.072Z,15.73
2022-11-29T10:28:45.563Z,7.80
2022-11-29T10:31:26.969Z,8.70
2022-11-29T10:34:00.484Z,8.00
2022-11-29T10:36:29.048Z,17.27
2022-11-29T10:38:59.742Z,7.80
2022-11-29T10:41:27.121Z,21.85
2022-11-29T10:43:58.834Z,8.90
2022-11-29T10:46:30.423Z,6.47
2022-11-29T10:48:59.565Z,7.05
2022-11-29T10:51:26.265Z,12.23
2022-11-29T10:53:56.952Z,6.55
2022-11-29T10:56:29.428Z,7.97
2022-11-29T10:59:03.380Z,6.32
2022-11-29T11:01:31.951Z,5.75
2022-11-29T11:04:00.802Z,13.73
2022-11-29T11:06:43.383Z,11.38
2022-11-29T11:09:29.149Z,9.95
2022-11-29T11:12:01.624Z,8.73
2022-11-29T11:14:34.522Z,5.72
2022-11-29T11:17:22.626Z,7.80
2022-11-29T11:20:05.795Z,6.10
2022-11-29T11:22:34.682Z,7.32
2022-11-29T11:25:07.004Z,7.53
2022-11-29T11:27:40.202Z,8.70
2022-11-29T11:30:21.933Z,8.70
2022-11-29T11:33:20.548Z,7.20
2022-11-29T11:36:05.163Z,9.35
2022-11-29T11:38:33.006Z,9.52
2022-11-29T11:41:20.679Z,4.10
2022-11-29T11:44:14.956Z,6.55
2022-11-29T11:46:50.525Z,5.00
2022-11-29T11:49:31.293Z,8.45
2022-11-29T11:51:59.661Z,6.45
2022-11-29T11:54:27.022Z,4.20
2022-11-29T11:56:53.661Z,5.43
2022-11-29T11:59:24.496Z,9.10
2022-11-29T12:01:51.640Z,8.60
2022-11-29T12:04:23.058Z,8.13
2022-11-29T12:06:50.052Z,5.37
2022-11-29T12:09:25.777Z,9.23
2022-11-29T12:12:03.828Z,6.60
2022-11-29T12:14:54.340Z,6.38
2022-11-29T12:17:38.878Z,8.48
2022-11-29T12:20:05.526Z,9.27
2022-11-29T12:22:46.722Z,10.30
2022-11-29T12:25:21.239Z,10.35
2022-11-29T12:27:50.173Z,8.43
2022-11-29T12:30:18.424Z,12.43
2022-11-29T12:33:04.231Z,8.75
2022-11-29T12:35:44.755Z,8.48
2022-11-29T12:38:56.030Z,11.23
2022-11-29T12:41:53.763Z,6.93
2022-11-29T12:44:53.040Z,12.55
2022-11-29T12:47:38.374Z,7.13
2022-11-29T12:50:07.765Z,8.52
2022-11-29T12:52:55.746Z,5.25
2022-11-29T12:56:05.320Z,7.43
2022-11-29T12:58:51.032Z,12.43
2022-11-29T13:01:23.454Z,4.97
2022-11-29T13:04:12.215Z,5.30
2022-11-29T13:06:38.960Z,7.35
2022-11-29T13:09:11.316Z,7.53
2022-11-29T13:11:43.251Z,5.22
2022-11-29T13:14:43.383Z,5.85
2022-11-29T13:17:31.870Z,4.82
2022-11-29T13:20:04.213Z,4.88
2022-11-29T13:22:53.379Z,3.72
2022-11-29T13:25:36.163Z,3.33
2022-11-29T13:28:32.002Z,2.13
2022-11-29T13:31:28.961Z,7.00
2022-11-29T13:34:13.437Z,3.70
2022-11-29T13:37:03.818Z,5.57
2022-11-29T13:39:39.108Z,2.47
2022-11-29T13:42:12.928Z,3.05
2022-11-29T13:44:58.707Z,2.15
2022-11-29T13:47:25.487Z,2.88
2022-11-29T13:50:04.752Z,1.67
2022-11-29T13:52:36.328Z,9.10
2022-11-29T13:55:11.777Z,1.35
2022-11-29T13:58:17.479Z,1.73
2022-11-29T14:00:44.805Z,2.15
2022-11-29T14:03:27.167Z,3.13
2022-11-29T14:06:03.438Z,3.53
2022-11-29T14:09:10.414Z,3.85
2022-11-29T14:11:34.747Z,2.15
2022-11-29T14:14:01.471Z,7.68
2022-11-29T14:16:38.558Z,2.17
2022-11-29T14:19:09.951Z,1.67
2022-11-29T14:22:07.383Z,3.13
2022-11-29T14:24:36.602Z,3.13
2022-11-29T14:27:06.066Z,3.33
2022-11-29T14:29:47.984Z,3.22
2022-11-29T14:32:32.653Z,4.28
2022-11-29T14:35:43.035Z,5.07
2022-11-29T14:38:25.088Z,6.50
2022-11-29T14:41:06.530Z,5.03
2022-11-29T14:43:35.503Z,4.65
2022-11-29T14:46:14.367Z,3.65
2022-11-29T14:48:47.578Z,1.83
2022-11-29T14:51:19.685Z,6.35
2022-11-29T14:53:51.206Z,4.35
2022-11-29T14:56:33.016Z,1.63
2022-11-29T14:59:37.259Z,3.53
2022-11-29T15:02:16.148Z,4.43
2022-11-29T15:04:43.620Z,6.50
2022-11-29T15:07:17.535Z,9.07
2022-11-29T15:09:44.717Z,5.80
2022-11-29T15:12:35.524Z,3.53
2022-11-29T15:15:42.207Z,4.43
2022-11-29T15:18:40.908Z,11.88
2022-11-29T15:21:26.814Z,9.23
2022-11-29T15:24:03.686Z,4.75
2022-11-29T15:26:32.293Z,5.38
2022-11-29T15:29:19.766Z,6.68
2022-11-29T15:31:52.309Z,7.22
2022-11-29T15:34:46.040Z,7.45
2022-11-29T15:37:22.922Z,10.73
2022-11-29T15:40:03.645Z,6.47
2022-11-29T15:42:47.138Z,8.13
2022-11-29T15:45:49.438Z,8.20
2022-11-29T15:48:21.575Z,8.48
2022-11-29T15:51:05.576Z,6.22
2022-11-29T15:53:43.403Z,7.00
2022-11-29T15:56:48.180Z,5.85
2022-11-29T15:59:54.682Z,7.05
2022-11-29T16:02:29.362Z,5.65
2022-11-29T16:05:21.569Z,7.20
2022-11-29T16:07:53.500Z,7.22
2022-11-29T16:10:23.805Z,6.82
2022-11-29T16:13:03.922Z,8.18
2022-11-29T16:15:36.452Z,9.05
2022-11-29T16:18:25.493Z,9.95
2022-11-29T16:21:03.671Z,9.45
2022-11-29T16:23:35.274Z,16.05
2022-11-29T16:26:13.931Z,17.48
2022-11-29T16:28:46.038Z,16.73
2022-11-29T16:31:20.542Z,19.20
2022-11-29T16:33:49.355Z,10.85
2022-11-29T16:36:21.169Z,18.13
2022-11-29T16:39:05.201Z,17.27
2022-11-29T16:41:38.883Z,17.13
2022-11-29T16:44:26.500Z,19.13
2022-11-29T16:47:12.406Z,37.25
2022-11-29T16:49:39.086Z,26.67
2022-11-29T16:52:27.120Z,133.32
2022-11-29T16:54:53.913Z,86.28
2022-11-29T16:57:20.805Z,126.05
2022-11-29T16:59:47.644Z,89.05
2022-11-29T17:02:15.522Z,72.30
2022-11-29T17:04:43.344Z,66.53
2022-11-29T17:07:21.308Z,52.10
2022-11-29T17:09:48.346Z,55.67
2022-11-29T17:12:15.104Z,54.95
2022-11-29T17:14:41.759Z,42.92
2022-11-29T17:17:08.400Z,46.88
2022-11-29T17:19:35.239Z,39.83
2022-11-29T17:22:04.642Z,41.83
2022-11-29T17:24:31.282Z,45.30
2022-11-29T17:26:57.950Z,48.45
2022-11-29T17:29:24.623Z,54.65
2022-11-29T17:31:53.200Z,54.55
2022-11-29T17:34:19.914Z,53.22
2022-11-29T17:36:46.838Z,52.45
2022-11-29T17:39:15.647Z,47.38
2022-11-29T17:41:42.331Z,57.40
2022-11-29T17:44:09.578Z,52.30
2022-11-29T17:46:36.927Z,48.15
2022-11-29T17:49:06.321Z,48.25
2022-11-29T17:54:21.054Z,45.22
2022-11-29T17:56:47.804Z,52.47
2022-11-29T17:59:14.466Z,66.38
2022-11-29T18:01:41.598Z,83.18
2022-11-29T18:04:08.483Z,64.53
2022-11-29T18:06:37.581Z,71.43
2022-11-29T18:09:06.832Z,72.40
2022-11-29T18:11:48.781Z,76.15
2022-11-29T18:14:19.123Z,73.88
2022-11-29T18:16:46.024Z,62.83
2022-11-29T18:19:15.880Z,61.40
2022-11-29T18:21:43.026Z,59.08
2022-11-29T18:24:10.356Z,60.67
2022-11-29T18:26:38.141Z,63.75
2022-11-29T18:29:06.206Z,58.85
2022-11-29T18:31:38.973Z,66.75
2022-11-29T18:34:10.573Z,58.58
2022-11-29T18:36:48.402Z,54.42
2022-11-29T18:39:17.415Z,75.65
2022-11-29T18:41:46.589Z,72.38
2022-11-29T18:44:15.586Z,67.40
2022-11-29T18:46:44.819Z,64.03
2022-11-29T18:49:14.139Z,56.25
2022-11-29T18:51:44.747Z,59.78
2022-11-29T18:54:12.453Z,39.53
2022-11-29T18:56:39.457Z,43.70
2022-11-29T18:59:11.538Z,42.80
2022-11-29T19:01:43.403Z,36.55
2022-11-29T19:04:14.857Z,37.47
2022-11-29T19:06:42.410Z,41.97
2022-11-29T19:09:13.617Z,35.50
2022-11-29T19:11:40.448Z,35.95
2022-11-29T19:14:12.770Z,31.77
2022-11-29T19:16:45.065Z,39.78
2022-11-29T19:19:12.135Z,45.58
2022-11-29T19:21:39.987Z,42.40
2022-11-29T19:24:13.768Z,45.30
2022-11-29T19:26:44.587Z,53.85
2022-11-29T19:29:12.485Z,61.63
2022-11-29T19:31:39.533Z,70.38
2022-11-29T19:34:06.563Z,87.43
2022-11-29T19:36:33.293Z,73.45
2022-11-29T19:39:01.720Z,72.55
2022-11-29T19:41:33.231Z,62.90
2022-11-29T19:44:02.259Z,73.87
2022-11-29T19:46:40.064Z,61.28
2022-11-29T19:49:08.413Z,55.95
2022-11-29T19:51:35.678Z,55.63
2022-11-29T19:54:05.449Z,56.08
2022-11-29T19:56:32.530Z,51.40
2022-11-29T19:59:00.016Z,51.05
2022-11-29T20:01:37.820Z,50.05
2022-11-29T20:04:06.308Z,44.70
2022-11-29T20:06:33.010Z,40.22
2022-11-29T20:08:59.683Z,45.17
2022-11-29T20:11:27.015Z,51.85
2022-11-29T20:13:59.262Z,66.93
2022-11-29T20:16:27.033Z,65.28
2022-11-29T20:18:54.646Z,59.97
2022-11-29T20:21:28.380Z,63.15
2022-11-29T20:24:00.059Z,51.13
2022-11-29T20:26:30.442Z,54.42
2022-11-29T20:28:57.099Z,48.33
2022-11-29T20:31:23.922Z,53.05
2022-11-29T20:33:52.797Z,49.05
2022-11-29T20:36:37.885Z,55.40
2022-11-29T20:39:23.684Z,43.95
2022-11-29T20:42:26.224Z,54.22
2022-11-29T20:44:58.274Z,46.08
2022-11-29T20:47:28.038Z,41.92
2022-11-29T20:49:54.980Z,43.20
2022-11-29T20:52:40.991Z,46.75
2022-11-29T20:55:07.841Z,43.03
2022-11-29T20:57:34.929Z,43.47
2022-11-29T21:00:02.450Z,40.33
2022-11-29T21:02:29.171Z,47.50
2022-11-29T21:04:55.828Z,40.47
2022-11-29T21:07:22.646Z,45.42
2022-11-29T21:09:49.327Z,35.03
2022-11-29T21:12:16.503Z,34.33
2022-11-29T21:14:44.608Z,36.03
2022-11-29T21:17:11.685Z,37.80
2022-11-29T21:19:39.735Z,39.97
2022-11-29T21:22:27.809Z,44.20
2022-11-29T21:25:14.279Z,39.35
2022-11-29T21:27:41.246Z,38.03
2022-11-29T21:30:19.819Z,38.92
2022-11-29T21:32:47.994Z,43.72
2022-11-29T21:35:15.134Z,42.05
2022-11-29T21:37:42.845Z,35.83
2022-11-29T21:40:11.416Z,39.75
2022-11-29T21:42:38.103Z,35.40
2022-11-29T21:45:08.202Z,46.10
2022-11-29T21:47:40.087Z,33.28
2022-11-29T21:50:07.451Z,38.97
2022-11-29T21:52:34.116Z,33.65
2022-11-29T21:55:00.812Z,37.13
2022-11-29T21:57:27.466Z,40.70
2022-11-29T21:59:54.147Z,34.55
2022-11-29T22:02:21.398Z,36.15
2022-11-29T22:04:48.791Z,35.90
2022-11-29T22:07:15.698Z,37.17
2022-11-29T22:09:42.375Z,41.33
2022-11-29T22:12:31.884Z,45.63
2022-11-29T22:14:55.829Z,36.15
2022-11-29T22:17:22.447Z,42.58
2022-11-29T22:19:49.112Z,35.25
2022-11-29T22:22:16.047Z,34.88
2022-11-29T22:24:42.676Z,35.28
2022-11-29T22:27:09.284Z,32.15
2022-11-29T22:29:35.896Z,37.30
2022-11-29T22:32:02.691Z,30.75
2022-11-29T22:34:29.325Z,33.58
2022-11-29T22:36:56.542Z,36.08
2022-11-29T22:39:24.137Z,24.30
2022-11-29T22:41:54.779Z,35.08
2022-11-29T22:44:23.173Z,29.73
2022-11-29T22:46:50.185Z,32.55
2022-11-29T22:49:16.826Z,26.92
2022-11-29T22:51:43.579Z,31.80
2022-11-29T22:54:11.709Z,27.85
2022-11-29T22:56:40.448Z,22.05
2022-11-29T22:59:07.626Z,29.00
2022-11-29T23:01:35.854Z,27.77
2022-11-29T23:04:04.559Z,30.42
2022-11-29T23:06:34.737Z,30.00
2022-11-29T23:09:10.588Z,30.55
2022-11-29T23:11:37.643Z,31.65
2022-11-29T23:14:04.467Z,26.85
2022-11-29T23:16:31.343Z,27.58
2022-11-29T23:18:58.745Z,24.13
2022-11-29T23:21:28.230Z,24.73
2022-11-29T23:23:56.733Z,20.88
2022-11-29T23:26:27.149Z,15.35
2022-11-29T23:28:54.545Z,14.52
2022-11-29T23:31:22.461Z,16.88
2022-11-29T23:33:49.507Z,13.45
2022-11-29T23:36:17.140Z,11.52
2022-11-29T23:38:44.126Z,13.50
2022-11-29T23:41:11.693Z,17.55
2022-11-29T23:43:40.671Z,9.15
2022-11-29T23:46:14.732Z,13.50
2022-11-29T23:48:42.341Z,20.70
2022-11-29T23:51:09.885Z,16.98
2022-11-29T23:53:36.562Z,9.65
2022-11-29T23:56:06.443Z,16.27
2022-11-29T23:58:33.993Z,13.27
